sensor_id;sensor_type;location;lat;lon;timestamp;P1;P2;P0
72854;PMS7003;60991;51.278;22.550;2023-02-27T00:00:21;4.50;1.00;1.00
72854;PMS7003;60991;51.278;22.550;2023-02-27T00:01:51;1.00;1.00;1.00
72854;PMS7003;60991;51.278;22.550;2023-02-27T00:03:21;1.00;1.00;1.00
72854;PMS7003;60991;51.278;22.550;2023-02-27T00:04:52;2.00;2.00;1.25
72854;PMS7003;60991;51.278;22.550;2023-02-27T00:06:22;2.67;1.00;1.00
72854;PMS7003;60991;51.278;22.550;2023-02-27T00:07:52;1.00;1.00;0.50
72854;PMS7003;60991;51.278;22.550;2023-02-27T00:09:23;2.25;1.50;1.25
72854;PMS7003;60991;51.278;22.550;2023-02-27T00:10:53;5.75;1.75;1.25
72854;PMS7003;60991;51.278;22.550;2023-02-27T00:12:23;2.00;2.00;1.00
72854;PMS7003;60991;51.278;22.550;2023-02-27T00:13:53;2.00;1.75;1.25
72854;PMS7003;60991;51.278;22.550;2023-02-27T00:15:24;0.00;0.00;0.00
72854;PMS7003;60991;51.278;22.550;2023-02-27T00:16:54;1.00;0.50;0.50
72854;PMS7003;60991;51.278;22.550;2023-02-27T00:18:24;2.00;0.67;0.00
72854;PMS7003;60991;51.278;22.550;2023-02-27T00:19:54;2.00;0.00;0.00
72854;PMS7003;60991;51.278;22.550;2023-02-27T00:21:25;0.00;0.00;0.00
72854;PMS7003;60991;51.278;22.550;2023-02-27T00:22:55;0.50;0.25;0.25
72854;PMS7003;60991;51.278;22.550;2023-02-27T00:24:25;1.00;0.00;0.00
72854;PMS7003;60991;51.278;22.550;2023-02-27T00:25:56;0.00;0.00;0.00
72854;PMS7003;60991;51.278;22.550;2023-02-27T00:27:26;1.67;0.67;0.33
72854;PMS7003;60991;51.278;22.550;2023-02-27T00:28:56;0.00;0.00;0.00
72854;PMS7003;60991;51.278;22.550;2023-02-27T00:30:26;0.25;0.25;0.00
72854;PMS7003;60991;51.278;22.550;2023-02-27T00:31:57;0.00;0.00;0.00
72854;PMS7003;60991;51.278;22.550;2023-02-27T00:33:27;0.00;0.00;0.00
72854;PMS7003;60991;51.278;22.550;2023-02-27T00:34:57;0.67;0.00;0.00
72854;PMS7003;60991;51.278;22.550;2023-02-27T00:36:27;4.25;0.25;0.00
72854;PMS7003;60991;51.278;22.550;2023-02-27T00:37:57;2.67;0.33;0.33
72854;PMS7003;60991;51.278;22.550;2023-02-27T00:39:28;2.00;1.00;0.00
72854;PMS7003;60991;51.278;22.550;2023-02-27T00:40:58;1.50;0.00;0.00
72854;PMS7003;60991;51.278;22.550;2023-02-27T00:42:28;0.00;0.00;0.00
72854;PMS7003;60991;51.278;22.550;2023-02-27T00:43:58;0.00;0.00;0.00
72854;PMS7003;60991;51.278;22.550;2023-02-27T00:45:29;0.33;0.00;0.00
72854;PMS7003;60991;51.278;22.550;2023-02-27T00:46:59;1.00;1.00;1.00
72854;PMS7003;60991;51.278;22.550;2023-02-27T00:48:29;1.25;0.25;0.00
72854;PMS7003;60991;51.278;22.550;2023-02-27T00:50:00;3.50;2.00;1.25
72854;PMS7003;60991;51.278;22.550;2023-02-27T00:51:31;2.00;0.75;0.00
72854;PMS7003;60991;51.278;22.550;2023-02-27T00:53:01;1.67;0.00;0.00
72854;PMS7003;60991;51.278;22.550;2023-02-27T00:54:31;2.00;0.00;0.00
72854;PMS7003;60991;51.278;22.550;2023-02-27T00:56:01;0.00;0.00;0.00
72854;PMS7003;60991;51.278;22.550;2023-02-27T00:57:32;1.00;1.00;1.00
72854;PMS7003;60991;51.278;22.550;2023-02-27T00:59:02;2.00;2.00;1.25
72854;PMS7003;60991;51.278;22.550;2023-02-27T01:00:32;0.75;0.75;0.75
72854;PMS7003;60991;51.278;22.550;2023-02-27T01:02:03;0.00;0.00;0.00
72854;PMS7003;60991;51.278;22.550;2023-02-27T01:03:33;1.00;1.00;1.00
72854;PMS7003;60991;51.278;22.550;2023-02-27T01:05:03;1.00;1.00;1.00
72854;PMS7003;60991;51.278;22.550;2023-02-27T01:06:34;1.25;1.00;1.00
72854;PMS7003;60991;51.278;22.550;2023-02-27T01:08:04;1.00;1.00;1.00
72854;PMS7003;60991;51.278;22.550;2023-02-27T01:09:34;0.25;0.25;0.00
72854;PMS7003;60991;51.278;22.550;2023-02-27T01:11:05;1.00;1.00;1.00
72854;PMS7003;60991;51.278;22.550;2023-02-27T01:12:35;1.00;1.00;1.00
72854;PMS7003;60991;51.278;22.550;2023-02-27T01:14:05;1.00;1.00;1.00
72854;PMS7003;60991;51.278;22.550;2023-02-27T01:15:36;1.00;1.00;1.00
72854;PMS7003;60991;51.278;22.550;2023-02-27T01:17:06;1.00;1.00;0.33
72854;PMS7003;60991;51.278;22.550;2023-02-27T01:18:36;1.00;1.00;0.33
72854;PMS7003;60991;51.278;22.550;2023-02-27T01:20:07;0.25;0.25;0.00
72854;PMS7003;60991;51.278;22.550;2023-02-27T01:21:38;1.00;1.00;1.00
72854;PMS7003;60991;51.278;22.550;2023-02-27T01:23:08;4.00;0.00;0.00
72854;PMS7003;60991;51.278;22.550;2023-02-27T01:24:39;0.75;0.75;0.50
72854;PMS7003;60991;51.278;22.550;2023-02-27T01:26:09;0.00;0.00;0.00
72854;PMS7003;60991;51.278;22.550;2023-02-27T01:27:39;1.25;0.00;0.00
72854;PMS7003;60991;51.278;22.550;2023-02-27T01:29:10;1.33;0.00;0.00
72854;PMS7003;60991;51.278;22.550;2023-02-27T01:30:40;0.25;0.00;0.00
72854;PMS7003;60991;51.278;22.550;2023-02-27T01:32:10;0.00;0.00;0.00
72854;PMS7003;60991;51.278;22.550;2023-02-27T01:33:40;2.00;0.33;0.33
72854;PMS7003;60991;51.278;22.550;2023-02-27T01:35:11;0.00;0.00;0.00
72854;PMS7003;60991;51.278;22.550;2023-02-27T01:36:41;2.00;0.00;0.00
72854;PMS7003;60991;51.278;22.550;2023-02-27T01:38:11;0.75;0.75;0.00
72854;PMS7003;60991;51.278;22.550;2023-02-27T01:39:42;1.00;0.00;0.00
72854;PMS7003;60991;51.278;22.550;2023-02-27T01:41:12;0.00;0.00;0.00
72854;PMS7003;60991;51.278;22.550;2023-02-27T01:42:42;0.00;0.00;0.00
72854;PMS7003;60991;51.278;22.550;2023-02-27T01:44:12;0.33;0.00;0.00
72854;PMS7003;60991;51.278;22.550;2023-02-27T01:45:44;0.00;0.00;0.00
72854;PMS7003;60991;51.278;22.550;2023-02-27T01:47:15;0.00;0.00;0.00
72854;PMS7003;60991;51.278;22.550;2023-02-27T01:48:45;0.00;0.00;0.00
72854;PMS7003;60991;51.278;22.550;2023-02-27T01:50:16;0.00;0.00;0.00
72854;PMS7003;60991;51.278;22.550;2023-02-27T01:51:49;0.00;0.00;0.00
72854;PMS7003;60991;51.278;22.550;2023-02-27T01:53:23;1.75;0.25;0.00
72854;PMS7003;60991;51.278;22.550;2023-02-27T01:54:56;0.00;0.00;0.00
72854;PMS7003;60991;51.278;22.550;2023-02-27T01:56:28;0.00;0.00;0.00
72854;PMS7003;60991;51.278;22.550;2023-02-27T01:58:00;0.00;0.00;0.00
72854;PMS7003;60991;51.278;22.550;2023-02-27T01:59:31;0.00;0.00;0.00
72854;PMS7003;60991;51.278;22.550;2023-02-27T02:01:03;0.00;0.00;0.00
72854;PMS7003;60991;51.278;22.550;2023-02-27T02:02:36;0.75;0.75;0.75
72854;PMS7003;60991;51.278;22.550;2023-02-27T02:04:14;0.00;0.00;0.00
72854;PMS7003;60991;51.278;22.550;2023-02-27T02:05:53;0.00;0.00;0.00
72854;PMS7003;60991;51.278;22.550;2023-02-27T02:07:25;0.00;0.00;0.00
72854;PMS7003;60991;51.278;22.550;2023-02-27T02:08:57;0.00;0.00;0.00
72854;PMS7003;60991;51.278;22.550;2023-02-27T02:10:29;1.00;0.00;0.00
72854;PMS7003;60991;51.278;22.550;2023-02-27T02:12:01;0.00;0.00;0.00
72854;PMS7003;60991;51.278;22.550;2023-02-27T02:13:32;0.25;0.00;0.00
72854;PMS7003;60991;51.278;22.550;2023-02-27T02:15:04;0.00;0.00;0.00
72854;PMS7003;60991;51.278;22.550;2023-02-27T02:18:33;1.00;1.00;1.00
72854;PMS7003;60991;51.278;22.550;2023-02-27T02:27:05;0.00;0.00;0.00
72854;PMS7003;60991;51.278;22.550;2023-02-27T02:41:47;0.25;0.00;0.00
72854;PMS7003;60991;51.278;22.550;2023-02-27T02:43:24;0.50;0.50;0.50
72854;PMS7003;60991;51.278;22.550;2023-02-27T02:45:04;0.50;0.50;0.00
72854;PMS7003;60991;51.278;22.550;2023-02-27T02:46:46;0.00;0.00;0.00
72854;PMS7003;60991;51.278;22.550;2023-02-27T02:52:11;0.50;0.00;0.00
72854;PMS7003;60991;51.278;22.550;2023-02-27T02:54:04;0.00;0.00;0.00
72854;PMS7003;60991;51.278;22.550;2023-02-27T02:55:46;0.00;0.00;0.00
72854;PMS7003;60991;51.278;22.550;2023-02-27T02:57:22;0.00;0.00;0.00
72854;PMS7003;60991;51.278;22.550;2023-02-27T02:59:05;0.00;0.00;0.00
72854;PMS7003;60991;51.278;22.550;2023-02-27T03:00:51;1.00;0.00;0.00
72854;PMS7003;60991;51.278;22.550;2023-02-27T03:02:30;0.75;0.00;0.00
72854;PMS7003;60991;51.278;22.550;2023-02-27T03:04:11;0.25;0.00;0.00
72854;PMS7003;60991;51.278;22.550;2023-02-27T03:05:48;0.00;0.00;0.00
72854;PMS7003;60991;51.278;22.550;2023-02-27T03:07:29;1.00;0.00;0.00
72854;PMS7003;60991;51.278;22.550;2023-02-27T03:09:06;1.00;1.00;0.50
72854;PMS7003;60991;51.278;22.550;2023-02-27T03:10:48;0.00;0.00;0.00
72854;PMS7003;60991;51.278;22.550;2023-02-27T03:12:25;0.00;0.00;0.00
72854;PMS7003;60991;51.278;22.550;2023-02-27T03:14:02;1.75;0.00;0.00
72854;PMS7003;60991;51.278;22.550;2023-02-27T03:15:46;1.50;1.00;1.00
72854;PMS7003;60991;51.278;22.550;2023-02-27T03:19:19;0.00;0.00;0.00
72854;PMS7003;60991;51.278;22.550;2023-02-27T03:21:00;0.50;0.00;0.00
72854;PMS7003;60991;51.278;22.550;2023-02-27T03:22:40;1.00;1.00;1.00
72854;PMS7003;60991;51.278;22.550;2023-02-27T03:24:20;2.25;0.25;0.25
72854;PMS7003;60991;51.278;22.550;2023-02-27T03:25:55;0.00;0.00;0.00
72854;PMS7003;60991;51.278;22.550;2023-02-27T03:27:29;0.75;0.75;0.75
72854;PMS7003;60991;51.278;22.550;2023-02-27T03:29:05;1.25;1.00;1.00
72854;PMS7003;60991;51.278;22.550;2023-02-27T03:30:45;0.50;0.50;0.50
72854;PMS7003;60991;51.278;22.550;2023-02-27T03:32:30;0.75;0.00;0.00
72854;PMS7003;60991;51.278;22.550;2023-02-27T03:34:33;1.00;1.00;1.00
72854;PMS7003;60991;51.278;22.550;2023-02-27T03:39:19;4.25;2.00;1.75
72854;PMS7003;60991;51.278;22.550;2023-02-27T03:41:13;0.75;0.00;0.00
72854;PMS7003;60991;51.278;22.550;2023-02-27T03:43:09;0.50;0.50;0.50
72854;PMS7003;60991;51.278;22.550;2023-02-27T03:44:47;0.25;0.25;0.00
72854;PMS7003;60991;51.278;22.550;2023-02-27T03:46:24;2.00;0.00;0.00
72854;PMS7003;60991;51.278;22.550;2023-02-27T03:47:56;1.00;1.00;0.00
72854;PMS7003;60991;51.278;22.550;2023-02-27T03:49:27;0.00;0.00;0.00
72854;PMS7003;60991;51.278;22.550;2023-02-27T03:50:57;0.00;0.00;0.00
72854;PMS7003;60991;51.278;22.550;2023-02-27T03:52:28;0.00;0.00;0.00
72854;PMS7003;60991;51.278;22.550;2023-02-27T03:55:44;0.00;0.00;0.00
72854;PMS7003;60991;51.278;22.550;2023-02-27T03:57:16;0.00;0.00;0.00
72854;PMS7003;60991;51.278;22.550;2023-02-27T03:58:46;0.00;0.00;0.00
72854;PMS7003;60991;51.278;22.550;2023-02-27T04:00:18;0.00;0.00;0.00
72854;PMS7003;60991;51.278;22.550;2023-02-27T04:01:51;0.00;0.00;0.00
72854;PMS7003;60991;51.278;22.550;2023-02-27T04:03:24;0.00;0.00;0.00
72854;PMS7003;60991;51.278;22.550;2023-02-27T04:04:55;0.00;0.00;0.00
72854;PMS7003;60991;51.278;22.550;2023-02-27T04:06:25;1.00;0.00;0.00
72854;PMS7003;60991;51.278;22.550;2023-02-27T04:13:17;0.00;0.00;0.00
72854;PMS7003;60991;51.278;22.550;2023-02-27T04:22:37;0.00;0.00;0.00
72854;PMS7003;60991;51.278;22.550;2023-02-27T04:26:23;0.00;0.00;0.00
72854;PMS7003;60991;51.278;22.550;2023-02-27T04:32:04;0.00;0.00;0.00
72854;PMS7003;60991;51.278;22.550;2023-02-27T04:33:49;1.25;0.00;0.00
72854;PMS7003;60991;51.278;22.550;2023-02-27T04:37:36;2.00;0.00;0.00
72854;PMS7003;60991;51.278;22.550;2023-02-27T04:39:26;0.00;0.00;0.00
72854;PMS7003;60991;51.278;22.550;2023-02-27T04:41:06;1.00;0.00;0.00
72854;PMS7003;60991;51.278;22.550;2023-02-27T04:42:45;0.00;0.00;0.00
72854;PMS7003;60991;51.278;22.550;2023-02-27T04:44:20;1.00;1.00;0.25
72854;PMS7003;60991;51.278;22.550;2023-02-27T04:45:54;0.25;0.25;0.25
72854;PMS7003;60991;51.278;22.550;2023-02-27T04:47:30;0.00;0.00;0.00
72854;PMS7003;60991;51.278;22.550;2023-02-27T04:49:12;0.00;0.00;0.00
72854;PMS7003;60991;51.278;22.550;2023-02-27T04:51:01;1.00;1.00;0.00
72854;PMS7003;60991;51.278;22.550;2023-02-27T04:52:37;0.25;0.25;0.00
72854;PMS7003;60991;51.278;22.550;2023-02-27T04:54:14;1.00;1.00;0.00
72854;PMS7003;60991;51.278;22.550;2023-02-27T04:55:51;0.00;0.00;0.00
72854;PMS7003;60991;51.278;22.550;2023-02-27T04:57:34;2.00;0.25;0.00
72854;PMS7003;60991;51.278;22.550;2023-02-27T04:59:13;0.00;0.00;0.00
72854;PMS7003;60991;51.278;22.550;2023-02-27T05:00:53;0.00;0.00;0.00
72854;PMS7003;60991;51.278;22.550;2023-02-27T05:02:32;3.00;0.00;0.00
72854;PMS7003;60991;51.278;22.550;2023-02-27T05:04:07;1.00;1.00;0.50
72854;PMS7003;60991;51.278;22.550;2023-02-27T05:05:42;0.50;0.50;0.50
72854;PMS7003;60991;51.278;22.550;2023-02-27T05:07:17;1.00;0.50;0.50
72854;PMS7003;60991;51.278;22.550;2023-02-27T05:09:00;2.50;0.00;0.00
72854;PMS7003;60991;51.278;22.550;2023-02-27T05:10:45;1.00;1.00;1.00
72854;PMS7003;60991;51.278;22.550;2023-02-27T05:12:29;4.75;1.00;1.00
72854;PMS7003;60991;51.278;22.550;2023-02-27T05:14:16;0.75;0.50;0.50
72854;PMS7003;60991;51.278;22.550;2023-02-27T05:15:59;1.25;1.00;1.00
72854;PMS7003;60991;51.278;22.550;2023-02-27T05:17:33;1.25;1.25;1.25
72854;PMS7003;60991;51.278;22.550;2023-02-27T05:19:07;3.00;0.00;0.00
72854;PMS7003;60991;51.278;22.550;2023-02-27T05:24:58;4.75;2.00;2.00
72854;PMS7003;60991;51.278;22.550;2023-02-27T05:29:00;6.50;6.50;4.75
72854;PMS7003;60991;51.278;22.550;2023-02-27T05:30:40;5.00;4.00;2.50
72854;PMS7003;60991;51.278;22.550;2023-02-27T05:34:06;2.50;2.50;1.75
72854;PMS7003;60991;51.278;22.550;2023-02-27T05:37:40;4.50;3.50;2.00
72854;PMS7003;60991;51.278;22.550;2023-02-27T05:39:28;5.00;4.75;4.00
72854;PMS7003;60991;51.278;22.550;2023-02-27T05:41:04;2.50;2.00;2.00
72854;PMS7003;60991;51.278;22.550;2023-02-27T05:42:39;6.50;3.75;3.00
72854;PMS7003;60991;51.278;22.550;2023-02-27T05:44:20;6.00;6.00;4.50
72854;PMS7003;60991;51.278;22.550;2023-02-27T05:45:58;6.00;4.00;3.00
72854;PMS7003;60991;51.278;22.550;2023-02-27T05:47:33;5.00;5.00;4.50
72854;PMS7003;60991;51.278;22.550;2023-02-27T05:49:09;7.00;5.00;4.00
72854;PMS7003;60991;51.278;22.550;2023-02-27T05:50:46;7.00;6.50;5.00
72854;PMS7003;60991;51.278;22.550;2023-02-27T05:52:21;7.75;4.75;3.00
72854;PMS7003;60991;51.278;22.550;2023-02-27T05:53:56;9.00;7.25;5.50
72854;PMS7003;60991;51.278;22.550;2023-02-27T05:55:36;13.00;6.50;5.00
72854;PMS7003;60991;51.278;22.550;2023-02-27T05:57:11;10.75;9.00;7.00
72854;PMS7003;60991;51.278;22.550;2023-02-27T05:58:53;6.75;6.00;5.00
72854;PMS7003;60991;51.278;22.550;2023-02-27T06:02:14;5.50;4.00;3.50
72854;PMS7003;60991;51.278;22.550;2023-02-27T06:03:44;7.50;5.25;4.50
72854;PMS7003;60991;51.278;22.550;2023-02-27T06:05:16;4.75;4.50;4.25
72854;PMS7003;60991;51.278;22.550;2023-02-27T06:06:47;7.25;6.00;4.75
72854;PMS7003;60991;51.278;22.550;2023-02-27T06:08:18;8.00;4.50;4.00
72854;PMS7003;60991;51.278;22.550;2023-02-27T06:09:49;11.75;7.50;5.50
72854;PMS7003;60991;51.278;22.550;2023-02-27T06:11:20;11.00;8.50;7.50
72854;PMS7003;60991;51.278;22.550;2023-02-27T06:12:50;9.00;8.50;7.00
72854;PMS7003;60991;51.278;22.550;2023-02-27T06:14:20;7.00;7.00;5.50
72854;PMS7003;60991;51.278;22.550;2023-02-27T06:15:51;7.33;7.00;5.00
72854;PMS7003;60991;51.278;22.550;2023-02-27T06:17:21;7.75;7.75;5.00
72854;PMS7003;60991;51.278;22.550;2023-02-27T06:18:52;8.67;7.00;7.00
72854;PMS7003;60991;51.278;22.550;2023-02-27T06:20:22;13.33;8.00;8.00
72854;PMS7003;60991;51.278;22.550;2023-02-27T06:21:52;13.25;8.50;7.00
72854;PMS7003;60991;51.278;22.550;2023-02-27T06:23:22;8.00;8.00;7.00
72854;PMS7003;60991;51.278;22.550;2023-02-27T06:24:53;11.75;11.50;8.50
72854;PMS7003;60991;51.278;22.550;2023-02-27T06:26:23;13.00;12.00;8.00
72854;PMS7003;60991;51.278;22.550;2023-02-27T06:27:53;13.50;13.00;8.50
72854;PMS7003;60991;51.278;22.550;2023-02-27T06:29:23;14.67;11.00;10.00
72854;PMS7003;60991;51.278;22.550;2023-02-27T06:30:54;13.67;13.67;10.00
72854;PMS7003;60991;51.278;22.550;2023-02-27T06:32:25;9.50;8.50;7.25
72854;PMS7003;60991;51.278;22.550;2023-02-27T06:33:55;13.50;13.25;12.00
72854;PMS7003;60991;51.278;22.550;2023-02-27T06:35:26;20.67;14.00;8.67
72854;PMS7003;60991;51.278;22.550;2023-02-27T06:36:56;17.50;10.25;8.00
72854;PMS7003;60991;51.278;22.550;2023-02-27T06:38:27;10.75;10.50;8.00
72854;PMS7003;60991;51.278;22.550;2023-02-27T06:39:57;10.67;6.33;5.00
72854;PMS7003;60991;51.278;22.550;2023-02-27T06:41:30;8.50;7.50;5.00
72854;PMS7003;60991;51.278;22.550;2023-02-27T06:43:01;12.33;7.00;5.00
72854;PMS7003;60991;51.278;22.550;2023-02-27T06:44:31;8.00;5.67;4.00
72854;PMS7003;60991;51.278;22.550;2023-02-27T06:46:01;8.67;7.33;4.00
72854;PMS7003;60991;51.278;22.550;2023-02-27T06:47:32;8.75;7.00;5.00
72854;PMS7003;60991;51.278;22.550;2023-02-27T06:49:03;8.00;7.75;6.50
72854;PMS7003;60991;51.278;22.550;2023-02-27T06:50:33;8.50;7.75;4.75
72854;PMS7003;60991;51.278;22.550;2023-02-27T06:52:04;10.50;8.00;6.50
72854;PMS7003;60991;51.278;22.550;2023-02-27T06:53:34;7.67;7.00;6.33
72854;PMS7003;60991;51.278;22.550;2023-02-27T06:55:05;7.00;7.00;5.00
72854;PMS7003;60991;51.278;22.550;2023-02-27T06:56:36;10.25;6.75;4.50
72854;PMS7003;60991;51.278;22.550;2023-02-27T06:58:06;8.67;4.00;4.00
72854;PMS7003;60991;51.278;22.550;2023-02-27T06:59:36;4.67;4.67;2.67
72854;PMS7003;60991;51.278;22.550;2023-02-27T07:01:07;3.33;3.33;2.00
72854;PMS7003;60991;51.278;22.550;2023-02-27T07:02:37;7.75;4.00;4.00
72854;PMS7003;60991;51.278;22.550;2023-02-27T07:04:08;7.00;1.25;1.25
72854;PMS7003;60991;51.278;22.550;2023-02-27T07:05:42;4.25;2.00;2.00
72854;PMS7003;60991;51.278;22.550;2023-02-27T07:07:12;1.50;1.50;1.00
72854;PMS7003;60991;51.278;22.550;2023-02-27T07:08:42;2.00;2.00;1.00
72854;PMS7003;60991;51.278;22.550;2023-02-27T07:10:13;2.67;1.33;1.00
72854;PMS7003;60991;51.278;22.550;2023-02-27T07:11:46;1.75;1.75;1.75
72854;PMS7003;60991;51.278;22.550;2023-02-27T07:13:16;4.00;2.00;2.00
72854;PMS7003;60991;51.278;22.550;2023-02-27T07:14:47;2.00;2.00;2.00
72854;PMS7003;60991;51.278;22.550;2023-02-27T07:16:17;2.00;1.67;1.33
72854;PMS7003;60991;51.278;22.550;2023-02-27T07:17:47;4.00;2.00;1.67
72854;PMS7003;60991;51.278;22.550;2023-02-27T07:19:17;1.00;1.00;1.00
72854;PMS7003;60991;51.278;22.550;2023-02-27T07:20:50;5.00;2.67;2.67
72854;PMS7003;60991;51.278;22.550;2023-02-27T07:22:21;3.00;2.00;1.50
72854;PMS7003;60991;51.278;22.550;2023-02-27T07:23:51;6.33;4.00;2.67
72854;PMS7003;60991;51.278;22.550;2023-02-27T07:25:21;0.00;0.00;0.00
72854;PMS7003;60991;51.278;22.550;2023-02-27T07:26:52;1.67;1.67;1.33
72854;PMS7003;60991;51.278;22.550;2023-02-27T07:28:22;7.75;4.50;4.00
72854;PMS7003;60991;51.278;22.550;2023-02-27T07:29:52;5.00;4.00;2.00
72854;PMS7003;60991;51.278;22.550;2023-02-27T07:31:22;2.67;2.67;2.00
72854;PMS7003;60991;51.278;22.550;2023-02-27T07:32:52;4.00;4.00;2.00
72854;PMS7003;60991;51.278;22.550;2023-02-27T07:34:23;5.00;2.67;2.00
72854;PMS7003;60991;51.278;22.550;2023-02-27T07:35:53;5.00;2.00;1.50
72854;PMS7003;60991;51.278;22.550;2023-02-27T07:37:23;2.75;2.00;2.00
72854;PMS7003;60991;51.278;22.550;2023-02-27T07:38:53;2.00;2.00;2.00
72854;PMS7003;60991;51.278;22.550;2023-02-27T07:40:24;2.00;2.00;2.00
72854;PMS7003;60991;51.278;22.550;2023-02-27T07:41:54;3.75;1.50;1.25
72854;PMS7003;60991;51.278;22.550;2023-02-27T07:43:24;2.00;2.00;1.00
72854;PMS7003;60991;51.278;22.550;2023-02-27T07:44:55;5.50;3.00;2.00
72854;PMS7003;60991;51.278;22.550;2023-02-27T07:46:25;2.50;2.00;2.00
72854;PMS7003;60991;51.278;22.550;2023-02-27T07:47:55;4.67;4.33;3.33
72854;PMS7003;60991;51.278;22.550;2023-02-27T07:49:26;4.75;4.75;3.50
72854;PMS7003;60991;51.278;22.550;2023-02-27T07:50:56;4.33;1.33;1.33
72854;PMS7003;60991;51.278;22.550;2023-02-27T07:52:26;2.00;2.00;2.00
72854;PMS7003;60991;51.278;22.550;2023-02-27T07:53:57;2.67;2.67;1.33
72854;PMS7003;60991;51.278;22.550;2023-02-27T07:55:27;3.50;2.00;1.00
72854;PMS7003;60991;51.278;22.550;2023-02-27T07:56:57;5.00;2.00;2.00
72854;PMS7003;60991;51.278;22.550;2023-02-27T07:58:27;2.00;2.00;2.00
72854;PMS7003;60991;51.278;22.550;2023-02-27T07:59:58;3.33;3.33;2.00
72854;PMS7003;60991;51.278;22.550;2023-02-27T08:01:28;2.00;2.00;2.00
72854;PMS7003;60991;51.278;22.550;2023-02-27T08:02:58;5.50;2.00;2.00
72854;PMS7003;60991;51.278;22.550;2023-02-27T08:04:29;4.00;4.00;2.00
72854;PMS7003;60991;51.278;22.550;2023-02-27T08:05:59;2.00;2.00;1.50
72854;PMS7003;60991;51.278;22.550;2023-02-27T08:07:29;2.50;1.00;1.00
72854;PMS7003;60991;51.278;22.550;2023-02-27T08:08:59;7.67;3.33;2.67
72854;PMS7003;60991;51.278;22.550;2023-02-27T08:10:29;0.00;0.00;0.00
72854;PMS7003;60991;51.278;22.550;2023-02-27T08:12:00;1.00;1.00;1.00
72854;PMS7003;60991;51.278;22.550;2023-02-27T08:13:30;8.00;4.00;2.00
72854;PMS7003;60991;51.278;22.550;2023-02-27T08:15:00;2.00;1.00;1.00
72854;PMS7003;60991;51.278;22.550;2023-02-27T08:16:30;4.00;1.00;1.00
72854;PMS7003;60991;51.278;22.550;2023-02-27T08:18:01;1.00;1.00;1.00
72854;PMS7003;60991;51.278;22.550;2023-02-27T08:19:31;1.00;1.00;1.00
72854;PMS7003;60991;51.278;22.550;2023-02-27T08:21:01;4.00;1.00;0.25
72854;PMS7003;60991;51.278;22.550;2023-02-27T08:22:32;2.50;2.00;1.25
72854;PMS7003;60991;51.278;22.550;2023-02-27T08:24:02;2.00;1.50;1.00
72854;PMS7003;60991;51.278;22.550;2023-02-27T08:25:32;5.50;4.50;2.00
72854;PMS7003;60991;51.278;22.550;2023-02-27T08:27:03;1.00;1.00;1.00
72854;PMS7003;60991;51.278;22.550;2023-02-27T08:28:33;4.00;2.00;1.00
72854;PMS7003;60991;51.278;22.550;2023-02-27T08:30:03;1.67;0.00;0.00
72854;PMS7003;60991;51.278;22.550;2023-02-27T08:31:35;1.00;1.00;1.00
72854;PMS7003;60991;51.278;22.550;2023-02-27T08:33:05;2.50;1.00;1.00
72854;PMS7003;60991;51.278;22.550;2023-02-27T08:34:36;1.00;1.00;1.00
72854;PMS7003;60991;51.278;22.550;2023-02-27T08:36:06;2.00;0.00;0.00
72854;PMS7003;60991;51.278;22.550;2023-02-27T08:37:36;1.00;1.00;1.00
72854;PMS7003;60991;51.278;22.550;2023-02-27T08:39:07;2.00;2.00;1.00
72854;PMS7003;60991;51.278;22.550;2023-02-27T08:40:38;1.25;1.25;1.00
72854;PMS7003;60991;51.278;22.550;2023-02-27T08:42:08;1.00;0.00;0.00
72854;PMS7003;60991;51.278;22.550;2023-02-27T08:43:38;0.00;0.00;0.00
72854;PMS7003;60991;51.278;22.550;2023-02-27T08:45:09;2.00;1.00;1.00
72854;PMS7003;60991;51.278;22.550;2023-02-27T08:46:39;1.75;1.00;1.00
72854;PMS7003;60991;51.278;22.550;2023-02-27T08:48:09;1.33;1.00;1.00
72854;PMS7003;60991;51.278;22.550;2023-02-27T08:49:40;1.00;0.67;0.67
72854;PMS7003;60991;51.278;22.550;2023-02-27T08:51:10;3.00;1.00;1.00
72854;PMS7003;60991;51.278;22.550;2023-02-27T08:52:40;1.00;1.00;0.50
72854;PMS7003;60991;51.278;22.550;2023-02-27T08:54:10;2.00;2.00;1.67
72854;PMS7003;60991;51.278;22.550;2023-02-27T08:55:41;3.33;3.33;2.00
72854;PMS7003;60991;51.278;22.550;2023-02-27T08:57:11;4.50;4.25;4.00
72854;PMS7003;60991;51.278;22.550;2023-02-27T08:58:42;1.00;1.00;1.00
72854;PMS7003;60991;51.278;22.550;2023-02-27T09:00:12;3.50;2.00;2.00
72854;PMS7003;60991;51.278;22.550;2023-02-27T09:01:43;5.50;4.00;2.00
72854;PMS7003;60991;51.278;22.550;2023-02-27T09:03:13;4.00;1.00;0.75
72854;PMS7003;60991;51.278;22.550;2023-02-27T09:04:43;8.50;5.00;4.00
72854;PMS7003;60991;51.278;22.550;2023-02-27T09:06:14;4.00;4.00;3.33
72854;PMS7003;60991;51.278;22.550;2023-02-27T09:07:44;6.50;3.50;3.00
72854;PMS7003;60991;51.278;22.550;2023-02-27T09:09:14;7.00;4.25;4.00
72854;PMS7003;60991;51.278;22.550;2023-02-27T09:10:44;7.50;5.50;4.00
72854;PMS7003;60991;51.278;22.550;2023-02-27T09:12:15;2.00;2.00;1.00
72854;PMS7003;60991;51.278;22.550;2023-02-27T09:13:45;4.25;4.00;3.00
72854;PMS7003;60991;51.278;22.550;2023-02-27T09:15:15;2.00;2.00;1.67
72854;PMS7003;60991;51.278;22.550;2023-02-27T09:16:45;2.00;2.00;1.75
72854;PMS7003;60991;51.278;22.550;2023-02-27T09:18:16;4.00;4.00;2.00
72854;PMS7003;60991;51.278;22.550;2023-02-27T09:19:46;6.00;2.00;2.00
72854;PMS7003;60991;51.278;22.550;2023-02-27T09:21:16;4.00;2.00;2.00
72854;PMS7003;60991;51.278;22.550;2023-02-27T09:22:46;3.50;1.75;1.75
72854;PMS7003;60991;51.278;22.550;2023-02-27T09:24:17;4.00;1.00;1.00
72854;PMS7003;60991;51.278;22.550;2023-02-27T09:25:47;8.33;4.67;2.00
72854;PMS7003;60991;51.278;22.550;2023-02-27T09:27:17;0.67;0.00;0.00
72854;PMS7003;60991;51.278;22.550;2023-02-27T09:28:47;5.00;4.00;1.33
72854;PMS7003;60991;51.278;22.550;2023-02-27T09:30:18;3.67;1.00;1.00
72854;PMS7003;60991;51.278;22.550;2023-02-27T09:31:48;0.25;0.25;0.00
72854;PMS7003;60991;51.278;22.550;2023-02-27T09:33:18;4.00;1.00;1.00
72854;PMS7003;60991;51.278;22.550;2023-02-27T09:34:48;1.00;1.00;1.00
72854;PMS7003;60991;51.278;22.550;2023-02-27T09:36:19;2.00;2.00;0.75
72854;PMS7003;60991;51.278;22.550;2023-02-27T09:37:49;1.00;1.00;1.00
72854;PMS7003;60991;51.278;22.550;2023-02-27T09:39:19;0.00;0.00;0.00
72854;PMS7003;60991;51.278;22.550;2023-02-27T09:40:50;0.67;0.67;0.33
72854;PMS7003;60991;51.278;22.550;2023-02-27T09:42:23;0.25;0.25;0.25
72854;PMS7003;60991;51.278;22.550;2023-02-27T09:43:57;0.75;0.75;0.25
72854;PMS7003;60991;51.278;22.550;2023-02-27T09:45:28;1.25;0.00;0.00
72854;PMS7003;60991;51.278;22.550;2023-02-27T09:47:01;0.00;0.00;0.00
72854;PMS7003;60991;51.278;22.550;2023-02-27T09:50:40;0.50;0.50;0.00
72854;PMS7003;60991;51.278;22.550;2023-02-27T09:52:13;2.00;1.00;1.00
72854;PMS7003;60991;51.278;22.550;2023-02-27T09:53:47;1.00;1.00;1.00
72854;PMS7003;60991;51.278;22.550;2023-02-27T09:55:20;0.00;0.00;0.00
72854;PMS7003;60991;51.278;22.550;2023-02-27T09:56:59;1.75;0.50;0.50
72854;PMS7003;60991;51.278;22.550;2023-02-27T10:00:48;1.50;0.00;0.00
72854;PMS7003;60991;51.278;22.550;2023-02-27T10:02:29;1.25;1.00;1.00
72854;PMS7003;60991;51.278;22.550;2023-02-27T10:06:22;1.50;1.00;1.00
72854;PMS7003;60991;51.278;22.550;2023-02-27T10:08:01;0.00;0.00;0.00